createdAt,value
2019-03-21T00:01:56.310Z,6.87
2019-03-21T00:04:27.188Z,7.27
2019-03-21T00:06:57.973Z,9.93
2019-03-21T00:09:28.809Z,7.77
2019-03-21T00:12:04.069Z,7.13
2019-03-21T00:14:53.935Z,6.70
2019-03-21T00:17:27.903Z,7.10
2019-03-21T00:19:58.867Z,7.87
2019-03-21T00:22:29.610Z,7.27
2019-03-21T00:25:00.386Z,8.17
2019-03-21T00:27:31.388Z,8.90
2019-03-21T00:30:02.241Z,8.60
2019-03-21T00:32:33.367Z,7.27
2019-03-21T00:35:04.180Z,8.00
2019-03-21T00:37:34.916Z,7.27
2019-03-21T00:40:06.685Z,7.17
2019-03-21T00:42:38.121Z,6.83
2019-03-21T00:45:10.157Z,7.57
2019-03-21T00:47:41.920Z,10.60
2019-03-21T00:50:14.661Z,10.50
2019-03-21T00:52:48.072Z,8.77
2019-03-21T00:55:18.880Z,8.67
2019-03-21T00:57:49.860Z,7.73
2019-03-21T01:00:27.195Z,8.33
2019-03-21T01:02:58.067Z,8.77
2019-03-21T01:05:30.217Z,7.93
2019-03-21T01:08:01.194Z,6.90
2019-03-21T01:10:32.168Z,7.60
2019-03-21T01:13:03.181Z,7.20
2019-03-21T01:15:36.005Z,6.87
2019-03-21T01:18:06.851Z,7.17
2019-03-21T01:20:37.644Z,6.47
2019-03-21T01:23:08.418Z,6.83
2019-03-21T01:25:42.512Z,6.43
2019-03-21T01:28:14.541Z,6.47
2019-03-21T01:30:45.426Z,7.00
2019-03-21T01:33:16.227Z,7.27
2019-03-21T01:35:47.026Z,6.77
2019-03-21T01:38:17.834Z,6.80
2019-03-21T01:40:49.451Z,6.77
2019-03-21T01:43:20.722Z,7.70
2019-03-21T01:45:51.587Z,6.90
2019-03-21T01:48:22.453Z,7.07
2019-03-21T01:50:53.282Z,6.90
2019-03-21T01:53:24.050Z,7.03
2019-03-21T01:55:54.829Z,6.70
2019-03-21T01:58:25.929Z,7.40
2019-03-21T02:00:56.779Z,6.67
2019-03-21T02:03:27.598Z,6.53
2019-03-21T02:05:58.381Z,7.90
2019-03-21T02:08:29.157Z,7.30
2019-03-21T02:10:59.969Z,6.87
2019-03-21T02:13:31.880Z,7.13
2019-03-21T02:16:03.108Z,7.27
2019-03-21T02:18:33.918Z,6.77
2019-03-21T02:21:04.773Z,8.30
2019-03-21T02:23:35.698Z,6.77
2019-03-21T02:26:06.503Z,6.93
2019-03-21T02:28:37.538Z,6.83
2019-03-21T02:31:08.478Z,7.23
2019-03-21T02:33:39.426Z,6.77
2019-03-21T02:36:10.228Z,6.13
2019-03-21T02:38:41.024Z,7.00
2019-03-21T02:41:12.082Z,8.10
2019-03-21T02:43:43.582Z,7.07
2019-03-21T02:46:14.966Z,8.37
2019-03-21T02:48:45.769Z,7.13
2019-03-21T02:51:16.617Z,7.60
2019-03-21T02:53:47.474Z,8.27
2019-03-21T02:56:19.750Z,7.30
2019-03-21T02:58:50.674Z,6.20
2019-03-21T03:01:21.915Z,6.80
2019-03-21T03:03:52.844Z,7.17
2019-03-21T03:06:23.659Z,6.63
2019-03-21T03:08:54.572Z,7.53
2019-03-21T03:11:25.468Z,6.83
2019-03-21T03:13:57.289Z,7.33
2019-03-21T03:16:28.120Z,6.47
2019-03-21T03:18:59.972Z,6.60
2019-03-21T03:21:30.840Z,6.97
2019-03-21T03:24:01.675Z,7.60
2019-03-21T03:26:32.438Z,7.07
2019-03-21T03:29:03.457Z,6.60
2019-03-21T03:31:36.986Z,7.40
2019-03-21T03:34:07.893Z,6.40
2019-03-21T03:36:38.690Z,6.97
2019-03-21T03:39:09.852Z,6.83
2019-03-21T03:41:40.710Z,7.00
2019-03-21T03:44:11.830Z,7.13
2019-03-21T03:46:42.567Z,7.53
2019-03-21T03:49:13.564Z,7.47
2019-03-21T03:51:44.620Z,8.00
2019-03-21T03:54:15.623Z,7.20
2019-03-21T03:56:48.042Z,7.90
2019-03-21T03:59:19.046Z,6.93
2019-03-21T04:01:49.784Z,7.37
2019-03-21T04:04:20.685Z,7.67
2019-03-21T04:06:51.509Z,6.63
2019-03-21T04:09:22.385Z,6.60
2019-03-21T04:11:53.526Z,7.27
2019-03-21T04:14:24.370Z,6.70
2019-03-21T04:16:55.110Z,7.30
2019-03-21T04:19:25.915Z,7.53
2019-03-21T04:21:58.710Z,6.03
2019-03-21T04:24:30.677Z,7.60
2019-03-21T04:27:01.443Z,7.23
2019-03-21T04:29:32.628Z,7.20
2019-03-21T04:32:07.531Z,7.37
2019-03-21T04:34:39.151Z,7.57
2019-03-21T04:37:09.955Z,7.63
2019-03-21T04:39:40.952Z,6.63
2019-03-21T04:42:11.838Z,7.10
2019-03-21T04:44:44.446Z,18.27
2019-03-21T04:47:15.431Z,17.67
2019-03-21T04:49:46.188Z,15.93
2019-03-21T04:52:17.049Z,10.13
2019-03-21T04:54:47.796Z,10.30
2019-03-21T04:57:18.641Z,7.03
2019-03-21T04:59:49.560Z,7.00
2019-03-21T05:02:20.442Z,7.93
2019-03-21T05:04:51.414Z,8.00
2019-03-21T05:07:22.238Z,7.30
2019-03-21T05:09:53.088Z,6.90
2019-03-21T05:12:23.882Z,8.00
2019-03-21T05:14:54.702Z,5.97
2019-03-21T05:17:25.437Z,7.03
2019-03-21T05:19:56.244Z,7.10
2019-03-21T05:22:29.751Z,8.97
2019-03-21T05:25:00.496Z,8.40
2019-03-21T05:27:31.231Z,8.33
2019-03-21T05:30:02.236Z,8.43
2019-03-21T05:32:33.013Z,8.30
2019-03-21T05:35:03.917Z,7.93
2019-03-21T05:37:35.119Z,8.60
2019-03-21T05:40:07.512Z,7.60
2019-03-21T05:42:38.395Z,10.73
2019-03-21T05:45:11.031Z,15.70
2019-03-21T05:47:41.809Z,10.20
2019-03-21T05:50:15.061Z,11.60
2019-03-21T05:52:46.115Z,8.90
2019-03-21T05:55:16.878Z,10.40
2019-03-21T05:57:47.674Z,10.10
2019-03-21T06:00:25.127Z,8.83
2019-03-21T06:02:56.094Z,9.43
2019-03-21T06:05:26.961Z,9.87
2019-03-21T06:08:21.036Z,9.37
2019-03-21T06:10:52.182Z,9.57
2019-03-21T06:13:25.707Z,10.20
2019-03-21T06:16:06.382Z,10.87
2019-03-21T06:19:13.610Z,11.90
2019-03-21T06:21:51.099Z,10.90
2019-03-21T06:24:48.966Z,12.17
2019-03-21T06:27:39.923Z,9.47
2019-03-21T06:30:11.827Z,11.03
2019-03-21T06:32:42.693Z,13.00
2019-03-21T06:35:22.404Z,15.07
2019-03-21T06:37:54.980Z,13.60
2019-03-21T06:40:30.443Z,11.03
2019-03-21T06:43:01.699Z,10.00
2019-03-21T06:45:34.115Z,9.37
2019-03-21T06:48:05.024Z,8.33
2019-03-21T06:50:35.881Z,9.07
2019-03-21T06:53:07.795Z,9.53
2019-03-21T06:55:38.623Z,9.83
2019-03-21T06:58:09.430Z,8.53
2019-03-21T07:00:40.203Z,10.33
2019-03-21T07:03:11.058Z,8.90
2019-03-21T07:05:41.895Z,9.30
2019-03-21T07:08:12.707Z,9.03
2019-03-21T07:10:43.534Z,9.03
2019-03-21T07:13:14.565Z,9.53
2019-03-21T07:15:45.726Z,9.87
2019-03-21T07:18:16.600Z,9.77
2019-03-21T07:20:47.462Z,9.60
2019-03-21T07:23:18.326Z,9.87
2019-03-21T07:25:51.350Z,9.73
2019-03-21T07:28:22.562Z,9.53
2019-03-21T07:30:53.365Z,8.60
2019-03-21T07:33:24.341Z,9.23
2019-03-21T07:35:55.178Z,9.37
2019-03-21T07:38:26.334Z,9.40
2019-03-21T07:40:57.429Z,10.33
2019-03-21T07:43:28.222Z,9.40
2019-03-21T07:45:59.696Z,10.20
2019-03-21T07:48:30.944Z,10.67
2019-03-21T07:51:01.746Z,9.43
2019-03-21T07:53:33.086Z,10.13
2019-03-21T07:56:05.326Z,10.10
2019-03-21T07:58:37.157Z,9.77
2019-03-21T08:01:07.966Z,10.27
2019-03-21T08:03:38.831Z,10.40
2019-03-21T08:06:09.719Z,9.67
2019-03-21T08:08:40.602Z,9.70
2019-03-21T08:11:11.362Z,10.23
2019-03-21T08:13:42.181Z,10.93
2019-03-21T08:16:13.442Z,10.27
2019-03-21T08:18:44.397Z,11.17
2019-03-21T08:21:15.244Z,11.63
2019-03-21T08:23:46.072Z,9.90
2019-03-21T08:26:17.023Z,11.83
2019-03-21T08:28:47.946Z,10.93
2019-03-21T08:31:19.903Z,11.13
2019-03-21T08:33:50.946Z,11.90
2019-03-21T08:36:21.769Z,12.63
2019-03-21T08:38:54.237Z,12.40
2019-03-21T08:41:25.152Z,12.83
2019-03-21T08:43:56.307Z,11.87
2019-03-21T08:46:27.599Z,12.57
2019-03-21T08:48:58.704Z,13.27
2019-03-21T08:51:30.834Z,12.07
2019-03-21T08:54:08.676Z,13.23
2019-03-21T08:56:39.541Z,12.50
2019-03-21T08:59:12.525Z,13.10
2019-03-21T09:01:43.358Z,14.10
2019-03-21T09:04:15.218Z,13.40
2019-03-21T09:06:45.983Z,13.67
2019-03-21T09:09:16.947Z,13.43
2019-03-21T09:11:47.753Z,14.33
2019-03-21T09:14:18.999Z,14.13
2019-03-21T09:16:49.874Z,12.87
2019-03-21T09:19:22.213Z,13.40
2019-03-21T09:21:53.139Z,12.00
2019-03-21T09:24:25.191Z,12.80
2019-03-21T09:26:56.021Z,12.57
2019-03-21T09:29:26.871Z,13.20
2019-03-21T09:31:58.357Z,12.93
2019-03-21T09:34:29.647Z,13.13
2019-03-21T09:37:03.954Z,13.20
2019-03-21T09:39:36.359Z,13.30
2019-03-21T09:42:07.182Z,13.30
2019-03-21T09:44:38.134Z,12.27
2019-03-21T09:47:09.515Z,12.17
2019-03-21T09:49:40.544Z,11.53
2019-03-21T09:52:13.340Z,12.10
2019-03-21T09:54:44.289Z,13.40
2019-03-21T09:57:15.051Z,12.10
2019-03-21T09:59:47.711Z,13.77
2019-03-21T10:02:18.887Z,12.33
2019-03-21T10:04:49.724Z,13.60
2019-03-21T10:07:20.511Z,11.97
2019-03-21T10:09:51.520Z,11.03
2019-03-21T10:12:22.336Z,12.33
2019-03-21T10:14:54.984Z,11.70
2019-03-21T10:17:26.115Z,11.70
2019-03-21T10:19:57.889Z,13.07
2019-03-21T10:22:28.667Z,8.03
2019-03-21T10:25:00.360Z,9.17
2019-03-21T10:27:34.682Z,6.50
2019-03-21T10:30:06.224Z,7.70
2019-03-21T10:32:37.001Z,10.40
2019-03-21T10:35:09.679Z,9.10
2019-03-21T10:37:40.410Z,6.50
2019-03-21T10:40:11.295Z,8.83
2019-03-21T10:42:42.089Z,8.60
2019-03-21T10:45:14.195Z,11.47
2019-03-21T10:47:45.542Z,11.33
2019-03-21T10:50:20.140Z,11.83
2019-03-21T10:52:50.916Z,11.60
2019-03-21T10:55:21.772Z,11.13
2019-03-21T10:57:52.546Z,11.20
2019-03-21T11:00:23.477Z,12.30
2019-03-21T11:02:55.222Z,11.60
2019-03-21T11:05:26.649Z,11.03
2019-03-21T11:07:57.365Z,9.27
2019-03-21T11:10:28.299Z,8.83
2019-03-21T11:12:59.477Z,9.00
2019-03-21T11:15:30.903Z,7.17
2019-03-21T11:18:01.695Z,7.83
2019-03-21T11:20:34.199Z,6.93
2019-03-21T11:23:08.124Z,8.00
2019-03-21T11:25:38.903Z,8.30
2019-03-21T11:28:09.902Z,8.80
2019-03-21T11:30:42.551Z,8.50
2019-03-21T11:33:13.390Z,8.50
2019-03-21T11:35:44.360Z,8.23
2019-03-21T11:38:15.187Z,7.47
2019-03-21T11:40:48.434Z,7.13
2019-03-21T11:43:20.202Z,7.27
2019-03-21T11:45:51.112Z,7.47
2019-03-21T11:48:23.506Z,7.53
2019-03-21T11:50:54.698Z,8.60
2019-03-21T11:53:25.618Z,8.33
2019-03-21T11:55:56.410Z,9.27
2019-03-21T11:58:27.156Z,9.10
2019-03-21T12:00:58.088Z,8.10
2019-03-21T12:03:31.186Z,9.47
2019-03-21T12:06:02.072Z,8.47
2019-03-21T12:08:33.932Z,8.83
2019-03-21T12:11:08.715Z,9.07
2019-03-21T12:13:39.452Z,8.90
2019-03-21T12:16:12.510Z,10.57
2019-03-21T12:18:43.371Z,9.60
2019-03-21T12:21:14.973Z,8.73
2019-03-21T12:23:45.833Z,9.53
2019-03-21T12:26:18.978Z,10.60
2019-03-21T12:28:49.813Z,9.80
2019-03-21T12:31:20.749Z,9.37
2019-03-21T12:33:51.505Z,9.63
2019-03-21T12:36:23.041Z,9.30
2019-03-21T12:38:56.626Z,9.97
2019-03-21T12:41:27.588Z,10.83
2019-03-21T12:44:00.758Z,9.60
2019-03-21T12:46:32.002Z,10.90
2019-03-21T12:49:05.427Z,10.03
2019-03-21T12:51:37.478Z,10.07
2019-03-21T12:54:08.379Z,11.17
2019-03-21T12:56:39.294Z,11.10
2019-03-21T12:59:10.335Z,10.37
2019-03-21T13:01:41.184Z,10.63
2019-03-21T13:04:12.881Z,11.87
2019-03-21T13:06:43.706Z,11.53
2019-03-21T13:09:14.593Z,11.47
2019-03-21T13:11:45.574Z,11.37
2019-03-21T13:14:20.062Z,11.70
2019-03-21T13:16:50.923Z,12.17
2019-03-21T13:19:22.808Z,11.33
2019-03-21T13:21:53.675Z,11.83
2019-03-21T13:24:24.613Z,12.47
2019-03-21T13:26:55.860Z,11.93
2019-03-21T13:29:28.660Z,12.33
2019-03-21T13:32:00.683Z,12.73
2019-03-21T13:34:32.216Z,11.90
2019-03-21T13:37:03.364Z,13.00
2019-03-21T13:39:34.585Z,14.73
2019-03-21T13:42:06.860Z,11.47
2019-03-21T13:44:39.683Z,12.53
2019-03-21T13:47:10.906Z,13.07
2019-03-21T13:49:43.446Z,14.63
2019-03-21T13:52:14.775Z,13.87
2019-03-21T13:54:45.882Z,14.07
2019-03-21T13:57:16.772Z,14.27
2019-03-21T13:59:47.619Z,13.27
2019-03-21T14:02:18.524Z,13.53
2019-03-21T14:04:55.600Z,13.63
2019-03-21T14:07:27.563Z,12.10
2019-03-21T14:09:59.835Z,11.83
2019-03-21T14:12:30.667Z,13.67
2019-03-21T14:15:04.108Z,12.33
2019-03-21T14:17:35.119Z,12.37
2019-03-21T14:20:06.449Z,13.27
2019-03-21T14:22:40.662Z,11.77
2019-03-21T14:25:13.988Z,12.27
2019-03-21T14:27:44.902Z,13.00
2019-03-21T14:30:20.161Z,14.27
2019-03-21T14:32:53.144Z,12.97
2019-03-21T14:35:26.519Z,14.40
2019-03-21T14:37:57.502Z,14.00
2019-03-21T14:40:28.364Z,14.33
2019-03-21T14:42:59.358Z,13.63
2019-03-21T14:45:30.210Z,15.00
2019-03-21T14:48:04.541Z,18.27
2019-03-21T14:50:35.883Z,14.23
2019-03-21T14:53:06.740Z,15.37
2019-03-21T14:55:47.003Z,15.60
2019-03-21T14:58:14.639Z,15.23
2019-03-21T15:00:45.568Z,14.13
2019-03-21T15:03:18.036Z,14.47
2019-03-21T15:05:48.858Z,13.73
2019-03-21T15:08:20.101Z,14.10
2019-03-21T15:10:51.127Z,14.17
2019-03-21T15:13:22.059Z,14.27
2019-03-21T15:15:54.477Z,15.50
2019-03-21T15:18:26.217Z,14.67
2019-03-21T15:20:57.082Z,13.63
2019-03-21T15:23:39.920Z,13.73
2019-03-21T15:26:00.744Z,14.13
2019-03-21T15:28:31.666Z,12.90
2019-03-21T15:31:02.751Z,14.20
2019-03-21T15:33:34.652Z,13.97
2019-03-21T15:36:05.408Z,13.10
2019-03-21T15:38:37.414Z,14.53
2019-03-21T15:41:10.412Z,16.50
2019-03-21T15:43:41.411Z,15.13
2019-03-21T15:46:12.392Z,14.17
2019-03-21T15:48:44.328Z,16.13
2019-03-21T15:51:15.916Z,13.77
2019-03-21T15:53:53.482Z,14.10
2019-03-21T15:56:19.598Z,14.97
2019-03-21T15:58:50.419Z,14.70
2019-03-21T16:01:22.112Z,14.83
2019-03-21T16:03:52.966Z,14.20
2019-03-21T16:06:23.910Z,14.43
2019-03-21T16:08:54.950Z,14.90
2019-03-21T16:11:25.788Z,15.83
2019-03-21T16:13:56.783Z,14.30
2019-03-21T16:16:28.439Z,14.87
2019-03-21T16:18:59.297Z,15.23
2019-03-21T16:21:30.255Z,15.30
2019-03-21T16:24:05.480Z,14.40
2019-03-21T16:26:36.528Z,14.27
2019-03-21T16:29:06.536Z,15.47
2019-03-21T16:31:40.434Z,15.23
2019-03-21T16:34:11.309Z,15.83
2019-03-21T16:36:42.235Z,15.20
2019-03-21T16:39:13.258Z,14.37
2019-03-21T16:41:44.074Z,14.73
2019-03-21T16:44:14.930Z,14.83
2019-03-21T16:46:45.747Z,16.13
2019-03-21T16:49:16.599Z,16.33
2019-03-21T16:51:47.718Z,16.13
2019-03-21T16:54:18.702Z,16.87
2019-03-21T16:56:49.658Z,14.97
2019-03-21T16:59:20.553Z,15.30
2019-03-21T17:01:51.327Z,16.30
2019-03-21T17:04:22.267Z,16.23
2019-03-21T17:06:53.414Z,15.80
2019-03-21T17:09:24.406Z,16.27
2019-03-21T17:11:55.234Z,17.33
2019-03-21T17:14:26.497Z,15.67
2019-03-21T17:16:57.337Z,16.20
2019-03-21T17:19:28.683Z,17.13
2019-03-21T17:21:59.523Z,17.57
2019-03-21T17:24:30.391Z,16.37
2019-03-21T17:27:02.410Z,18.03
2019-03-21T17:29:33.429Z,17.83
2019-03-21T17:32:04.250Z,19.13
2019-03-21T17:34:35.054Z,17.70
2019-03-21T17:37:05.971Z,16.87
2019-03-21T17:39:37.095Z,18.53
2019-03-21T17:42:07.838Z,18.13
2019-03-21T17:44:38.692Z,18.17
2019-03-21T17:47:09.457Z,17.00
2019-03-21T17:49:40.409Z,17.43
2019-03-21T17:52:11.589Z,17.30
2019-03-21T17:54:42.366Z,18.77
2019-03-21T17:57:13.202Z,16.53
2019-03-21T17:59:44.269Z,15.60
2019-03-21T18:02:15.043Z,16.53
2019-03-21T18:04:45.926Z,18.63
2019-03-21T18:07:16.787Z,17.67
2019-03-21T18:09:48.577Z,16.47
2019-03-21T18:12:20.498Z,18.43
2019-03-21T18:14:51.298Z,18.20
2019-03-21T18:17:22.034Z,18.40
2019-03-21T18:19:52.860Z,18.73
2019-03-21T18:22:24.696Z,17.73
2019-03-21T18:24:55.626Z,17.90
2019-03-21T18:27:26.401Z,18.43
2019-03-21T18:29:57.252Z,17.27
2019-03-21T18:32:28.257Z,19.07
2019-03-21T18:34:59.012Z,17.83
2019-03-21T18:37:29.766Z,17.87
2019-03-21T18:40:00.839Z,16.40
2019-03-21T18:42:31.681Z,17.23
2019-03-21T18:45:02.549Z,18.57
2019-03-21T18:47:33.283Z,20.53
2019-03-21T18:50:04.338Z,18.57
2019-03-21T18:52:35.974Z,16.37
2019-03-21T18:55:08.353Z,14.33
2019-03-21T18:57:39.210Z,14.70
2019-03-21T19:00:10.763Z,18.00
2019-03-21T19:02:41.495Z,27.73
2019-03-21T19:05:12.354Z,32.27
2019-03-21T19:07:43.209Z,28.93
2019-03-21T19:10:14.377Z,29.27
2019-03-21T19:12:45.309Z,29.10
2019-03-21T19:15:16.424Z,35.90
2019-03-21T19:17:47.234Z,35.47
2019-03-21T19:20:18.402Z,33.67
2019-03-21T19:22:49.270Z,32.13
2019-03-21T19:25:22.526Z,30.50
2019-03-21T19:27:53.301Z,28.33
2019-03-21T19:30:24.225Z,26.00
2019-03-21T19:32:55.063Z,24.70
2019-03-21T19:35:25.980Z,22.10
2019-03-21T19:37:56.727Z,22.00
2019-03-21T19:40:27.565Z,23.27
2019-03-21T19:42:58.346Z,22.30
2019-03-21T19:45:29.123Z,22.07
2019-03-21T19:47:59.859Z,22.23
2019-03-21T19:50:30.686Z,21.90
2019-03-21T19:53:01.889Z,22.53
2019-03-21T19:55:32.691Z,22.03
2019-03-21T19:58:03.523Z,23.03
2019-03-21T20:00:34.382Z,23.97
2019-03-21T20:03:05.277Z,24.40
2019-03-21T20:05:36.059Z,24.03
2019-03-21T20:08:06.804Z,25.87
2019-03-21T20:10:37.809Z,26.03
2019-03-21T20:13:08.595Z,25.00
2019-03-21T20:15:39.592Z,23.60
2019-03-21T20:18:12.390Z,23.90
2019-03-21T20:20:43.407Z,21.63
2019-03-21T20:23:14.216Z,23.67
2019-03-21T20:25:45.065Z,24.70
2019-03-21T20:28:16.145Z,24.57
2019-03-21T20:30:47.006Z,25.30
2019-03-21T20:33:17.783Z,25.50
2019-03-21T20:35:48.630Z,24.27
2019-03-21T20:38:19.379Z,23.43
2019-03-21T20:40:50.335Z,23.23
2019-03-21T20:43:21.192Z,22.83
2019-03-21T20:45:54.998Z,22.03
2019-03-21T20:48:30.676Z,22.73
2019-03-21T20:51:01.499Z,22.70
2019-03-21T20:53:32.409Z,23.53
2019-03-21T20:56:03.247Z,21.77
2019-03-21T20:58:34.495Z,20.90
2019-03-21T21:01:18.925Z,22.47
2019-03-21T21:03:54.183Z,21.70
2019-03-21T21:06:24.995Z,20.77
2019-03-21T21:08:55.763Z,21.10
2019-03-21T21:11:26.804Z,19.37
2019-03-21T21:13:57.634Z,20.33
2019-03-21T21:16:28.667Z,18.57
2019-03-21T21:18:59.409Z,19.83
2019-03-21T21:21:30.386Z,18.43
2019-03-21T21:24:01.142Z,21.10
2019-03-21T21:26:32.068Z,21.37
2019-03-21T21:29:03.244Z,19.33
2019-03-21T21:31:34.230Z,20.50
2019-03-21T21:34:12.184Z,31.30
2019-03-21T21:36:46.937Z,23.33
2019-03-21T21:42:27.546Z,20.27
2019-03-21T21:44:59.733Z,21.67
2019-03-21T21:47:30.557Z,20.83
2019-03-21T21:50:02.293Z,19.57
2019-03-21T21:52:41.914Z,19.93
2019-03-21T21:55:07.278Z,18.43
2019-03-21T21:57:39.240Z,19.33
2019-03-21T22:00:15.016Z,17.80
2019-03-21T22:02:46.132Z,18.90
2019-03-21T22:05:17.105Z,18.80
2019-03-21T22:07:47.973Z,17.77
2019-03-21T22:10:18.848Z,15.43
2019-03-21T22:12:52.250Z,17.33
2019-03-21T22:15:23.175Z,18.37
2019-03-21T22:17:53.986Z,17.10
2019-03-21T22:20:24.759Z,16.93
2019-03-21T22:22:56.739Z,16.90
2019-03-21T22:25:27.535Z,16.93
2019-03-21T22:27:58.575Z,16.67
2019-03-21T22:30:29.355Z,17.23
2019-03-21T22:33:00.237Z,17.23
2019-03-21T22:35:31.048Z,18.47
2019-03-21T22:38:01.943Z,26.50
2019-03-21T22:40:32.716Z,24.17
2019-03-21T22:43:03.610Z,22.30
2019-03-21T22:45:34.381Z,18.37
2019-03-21T22:48:05.279Z,16.83
2019-03-21T22:50:36.100Z,15.67
2019-03-21T22:53:06.979Z,16.53
2019-03-21T22:55:37.885Z,17.00
2019-03-21T22:58:08.813Z,17.70
2019-03-21T23:00:44.334Z,17.73
2019-03-21T23:03:15.224Z,17.93
2019-03-21T23:05:46.076Z,17.20
2019-03-21T23:08:16.863Z,19.23
2019-03-21T23:10:47.676Z,19.73
2019-03-21T23:13:18.578Z,19.97
2019-03-21T23:15:49.363Z,18.63
2019-03-21T23:18:20.189Z,18.63
2019-03-21T23:20:50.945Z,17.97
2019-03-21T23:23:21.790Z,18.23
2019-03-21T23:25:52.665Z,17.87
2019-03-21T23:28:23.839Z,18.97
2019-03-21T23:30:54.659Z,18.43
2019-03-21T23:33:25.620Z,17.50
2019-03-21T23:35:56.456Z,16.97
2019-03-21T23:38:27.352Z,18.40
2019-03-21T23:40:58.096Z,16.37
2019-03-21T23:43:30.199Z,16.97
2019-03-21T23:46:00.911Z,16.87
2019-03-21T23:48:31.694Z,17.30
2019-03-21T23:51:02.512Z,18.77
2019-03-21T23:53:33.317Z,18.03
2019-03-21T23:56:05.490Z,18.07
2019-03-21T23:58:36.301Z,19.50
